sensor_id;sensor_type;location;lat;lon;timestamp;temperature;humidity
44170;DHT22;29836;52.286;9.576;2022-12-24T00:00:16;6.20;99.90
44170;DHT22;29836;52.286;9.576;2022-12-24T00:02:42;6.20;99.90
44170;DHT22;29836;52.286;9.576;2022-12-24T00:05:08;6.10;99.90
44170;DHT22;29836;52.286;9.576;2022-12-24T00:07:33;6.20;99.90
44170;DHT22;29836;52.286;9.576;2022-12-24T00:09:59;6.30;99.90
44170;DHT22;29836;52.286;9.576;2022-12-24T00:12:24;6.30;99.90
44170;DHT22;29836;52.286;9.576;2022-12-24T00:14:50;6.30;99.90
44170;DHT22;29836;52.286;9.576;2022-12-24T00:17:15;6.30;99.90
44170;DHT22;29836;52.286;9.576;2022-12-24T00:19:41;6.20;99.90
44170;DHT22;29836;52.286;9.576;2022-12-24T00:22:07;6.10;99.90
44170;DHT22;29836;52.286;9.576;2022-12-24T00:24:33;6.20;99.90
44170;DHT22;29836;52.286;9.576;2022-12-24T00:26:59;6.20;99.90
44170;DHT22;29836;52.286;9.576;2022-12-24T00:29:24;6.10;99.90
44170;DHT22;29836;52.286;9.576;2022-12-24T00:31:50;6.10;99.90
44170;DHT22;29836;52.286;9.576;2022-12-24T00:34:15;6.10;99.90
44170;DHT22;29836;52.286;9.576;2022-12-24T00:36:41;6.10;99.90
44170;DHT22;29836;52.286;9.576;2022-12-24T00:39:06;6.20;99.90
44170;DHT22;29836;52.286;9.576;2022-12-24T00:41:32;6.10;99.90
44170;DHT22;29836;52.286;9.576;2022-12-24T00:44:03;6.20;99.90
44170;DHT22;29836;52.286;9.576;2022-12-24T00:46:33;6.10;99.90
44170;DHT22;29836;52.286;9.576;2022-12-24T00:48:59;6.10;99.90
44170;DHT22;29836;52.286;9.576;2022-12-24T00:51:25;6.10;99.90
44170;DHT22;29836;52.286;9.576;2022-12-24T00:53:51;6.10;99.90
44170;DHT22;29836;52.286;9.576;2022-12-24T00:56:17;6.10;99.90
44170;DHT22;29836;52.286;9.576;2022-12-24T00:58:43;6.00;99.90
44170;DHT22;29836;52.286;9.576;2022-12-24T01:01:09;6.10;99.90
44170;DHT22;29836;52.286;9.576;2022-12-24T01:03:34;6.20;99.90
44170;DHT22;29836;52.286;9.576;2022-12-24T01:06:01;6.20;99.90
44170;DHT22;29836;52.286;9.576;2022-12-24T01:08:27;6.20;99.90
44170;DHT22;29836;52.286;9.576;2022-12-24T01:10:53;6.30;99.90
44170;DHT22;29836;52.286;9.576;2022-12-24T01:13:18;6.30;99.90
44170;DHT22;29836;52.286;9.576;2022-12-24T01:15:44;6.30;99.90
44170;DHT22;29836;52.286;9.576;2022-12-24T01:18:09;6.30;99.90
44170;DHT22;29836;52.286;9.576;2022-12-24T01:20:35;6.30;99.90
44170;DHT22;29836;52.286;9.576;2022-12-24T01:23:00;6.30;99.90
44170;DHT22;29836;52.286;9.576;2022-12-24T01:25:26;6.30;99.90
44170;DHT22;29836;52.286;9.576;2022-12-24T01:27:52;6.30;99.90
44170;DHT22;29836;52.286;9.576;2022-12-24T01:30:17;6.30;99.90
44170;DHT22;29836;52.286;9.576;2022-12-24T01:32:43;6.30;99.90
44170;DHT22;29836;52.286;9.576;2022-12-24T01:35:09;6.30;99.90
44170;DHT22;29836;52.286;9.576;2022-12-24T01:37:34;6.60;99.90
44170;DHT22;29836;52.286;9.576;2022-12-24T01:40:00;7.00;99.90
44170;DHT22;29836;52.286;9.576;2022-12-24T01:42:47;7.20;99.90
44170;DHT22;29836;52.286;9.576;2022-12-24T01:46:00;7.50;99.90
44170;DHT22;29836;52.286;9.576;2022-12-24T01:48:58;7.70;99.90
44170;DHT22;29836;52.286;9.576;2022-12-24T01:51:43;7.90;99.90
44170;DHT22;29836;52.286;9.576;2022-12-24T01:54:15;8.10;99.90
44170;DHT22;29836;52.286;9.576;2022-12-24T01:56:59;8.20;99.90
44170;DHT22;29836;52.286;9.576;2022-12-24T01:59:25;8.30;99.90
44170;DHT22;29836;52.286;9.576;2022-12-24T02:01:52;8.40;99.90
44170;DHT22;29836;52.286;9.576;2022-12-24T02:04:39;8.40;99.90
44170;DHT22;29836;52.286;9.576;2022-12-24T02:07:05;8.40;99.90
44170;DHT22;29836;52.286;9.576;2022-12-24T02:09:33;8.50;99.90
44170;DHT22;29836;52.286;9.576;2022-12-24T02:11:59;8.50;99.90
44170;DHT22;29836;52.286;9.576;2022-12-24T02:14:27;8.50;99.90
44170;DHT22;29836;52.286;9.576;2022-12-24T02:25:57;8.60;99.90
44170;DHT22;29836;52.286;9.576;2022-12-24T02:31:56;8.60;99.90
44170;DHT22;29836;52.286;9.576;2022-12-24T02:34:38;8.60;99.90
44170;DHT22;29836;52.286;9.576;2022-12-24T02:37:24;8.60;99.90
44170;DHT22;29836;52.286;9.576;2022-12-24T02:39:59;8.60;99.90
44170;DHT22;29836;52.286;9.576;2022-12-24T02:42:31;8.60;99.90
44170;DHT22;29836;52.286;9.576;2022-12-24T02:45:03;8.60;99.90
44170;DHT22;29836;52.286;9.576;2022-12-24T02:47:30;8.60;99.90
44170;DHT22;29836;52.286;9.576;2022-12-24T02:49:56;8.50;99.90
44170;DHT22;29836;52.286;9.576;2022-12-24T02:54:54;8.50;99.90
44170;DHT22;29836;52.286;9.576;2022-12-24T03:00:17;8.50;99.90
44170;DHT22;29836;52.286;9.576;2022-12-24T03:08:14;8.50;99.90
44170;DHT22;29836;52.286;9.576;2022-12-24T03:10:55;8.50;99.90
44170;DHT22;29836;52.286;9.576;2022-12-24T03:13:23;8.50;99.90
44170;DHT22;29836;52.286;9.576;2022-12-24T03:15:50;8.50;99.90
44170;DHT22;29836;52.286;9.576;2022-12-24T03:18:21;8.50;99.90
44170;DHT22;29836;52.286;9.576;2022-12-24T03:21:01;8.50;99.90
44170;DHT22;29836;52.286;9.576;2022-12-24T03:23:29;8.50;99.90
44170;DHT22;29836;52.286;9.576;2022-12-24T03:25:55;8.50;99.90
44170;DHT22;29836;52.286;9.576;2022-12-24T03:28:25;8.40;99.90
44170;DHT22;29836;52.286;9.576;2022-12-24T03:30:52;8.40;99.90
44170;DHT22;29836;52.286;9.576;2022-12-24T03:33:17;8.30;99.90
44170;DHT22;29836;52.286;9.576;2022-12-24T03:35:43;8.30;99.90
44170;DHT22;29836;52.286;9.576;2022-12-24T03:38:09;8.30;99.90
44170;DHT22;29836;52.286;9.576;2022-12-24T03:40:35;8.40;99.90
44170;DHT22;29836;52.286;9.576;2022-12-24T03:43:00;8.40;99.90
44170;DHT22;29836;52.286;9.576;2022-12-24T03:45:26;8.30;99.90
44170;DHT22;29836;52.286;9.576;2022-12-24T03:47:52;8.40;99.90
44170;DHT22;29836;52.286;9.576;2022-12-24T03:50:17;8.40;99.90
44170;DHT22;29836;52.286;9.576;2022-12-24T03:52:43;8.40;99.90
44170;DHT22;29836;52.286;9.576;2022-12-24T03:55:09;8.40;99.90
44170;DHT22;29836;52.286;9.576;2022-12-24T03:57:34;8.40;99.90
44170;DHT22;29836;52.286;9.576;2022-12-24T04:00:00;8.40;99.90
44170;DHT22;29836;52.286;9.576;2022-12-24T04:02:25;8.40;99.90
44170;DHT22;29836;52.286;9.576;2022-12-24T04:04:51;8.40;99.90
44170;DHT22;29836;52.286;9.576;2022-12-24T04:07:17;8.40;99.90
44170;DHT22;29836;52.286;9.576;2022-12-24T04:09:42;8.40;99.90
44170;DHT22;29836;52.286;9.576;2022-12-24T04:12:08;8.40;99.90
44170;DHT22;29836;52.286;9.576;2022-12-24T04:14:33;8.40;99.90
44170;DHT22;29836;52.286;9.576;2022-12-24T04:16:59;8.30;99.90
44170;DHT22;29836;52.286;9.576;2022-12-24T04:19:24;8.30;99.90
44170;DHT22;29836;52.286;9.576;2022-12-24T04:21:50;8.30;99.90
44170;DHT22;29836;52.286;9.576;2022-12-24T04:24:15;8.30;99.90
44170;DHT22;29836;52.286;9.576;2022-12-24T04:26:41;8.30;99.90
44170;DHT22;29836;52.286;9.576;2022-12-24T04:29:06;8.30;99.90
44170;DHT22;29836;52.286;9.576;2022-12-24T04:31:32;8.30;99.90
44170;DHT22;29836;52.286;9.576;2022-12-24T04:33:58;8.30;99.90
44170;DHT22;29836;52.286;9.576;2022-12-24T04:36:23;8.30;99.90
44170;DHT22;29836;52.286;9.576;2022-12-24T04:38:49;8.30;99.90
44170;DHT22;29836;52.286;9.576;2022-12-24T04:41:17;8.20;99.90
44170;DHT22;29836;52.286;9.576;2022-12-24T04:43:43;8.10;99.90
44170;DHT22;29836;52.286;9.576;2022-12-24T04:46:15;8.10;99.90
44170;DHT22;29836;52.286;9.576;2022-12-24T04:48:44;8.00;99.90
44170;DHT22;29836;52.286;9.576;2022-12-24T04:51:09;8.10;99.90
44170;DHT22;29836;52.286;9.576;2022-12-24T04:53:36;8.10;99.90
44170;DHT22;29836;52.286;9.576;2022-12-24T04:56:01;8.10;99.90
44170;DHT22;29836;52.286;9.576;2022-12-24T04:58:28;8.20;99.90
44170;DHT22;29836;52.286;9.576;2022-12-24T05:00:53;8.20;99.90
44170;DHT22;29836;52.286;9.576;2022-12-24T05:03:19;8.20;99.90
44170;DHT22;29836;52.286;9.576;2022-12-24T05:05:45;8.20;99.90
44170;DHT22;29836;52.286;9.576;2022-12-24T05:08:12;8.20;99.90
44170;DHT22;29836;52.286;9.576;2022-12-24T05:10:38;8.20;99.90
44170;DHT22;29836;52.286;9.576;2022-12-24T05:13:04;8.20;99.90
44170;DHT22;29836;52.286;9.576;2022-12-24T05:15:29;8.20;99.90
44170;DHT22;29836;52.286;9.576;2022-12-24T05:17:55;8.20;99.90
44170;DHT22;29836;52.286;9.576;2022-12-24T05:20:20;8.20;99.90
44170;DHT22;29836;52.286;9.576;2022-12-24T05:22:46;8.20;99.90
44170;DHT22;29836;52.286;9.576;2022-12-24T05:25:37;8.20;99.90
44170;DHT22;29836;52.286;9.576;2022-12-24T05:28:22;8.20;99.90
44170;DHT22;29836;52.286;9.576;2022-12-24T05:30:48;8.10;99.90
44170;DHT22;29836;52.286;9.576;2022-12-24T05:33:13;8.20;99.90
44170;DHT22;29836;52.286;9.576;2022-12-24T05:35:39;8.20;99.90
44170;DHT22;29836;52.286;9.576;2022-12-24T05:38:04;8.10;99.90
44170;DHT22;29836;52.286;9.576;2022-12-24T05:40:30;8.00;99.90
44170;DHT22;29836;52.286;9.576;2022-12-24T05:42:55;8.00;99.90
44170;DHT22;29836;52.286;9.576;2022-12-24T05:45:21;7.90;99.90
44170;DHT22;29836;52.286;9.576;2022-12-24T05:47:46;7.90;99.90
44170;DHT22;29836;52.286;9.576;2022-12-24T05:50:12;7.90;99.90
44170;DHT22;29836;52.286;9.576;2022-12-24T05:52:38;8.00;99.90
44170;DHT22;29836;52.286;9.576;2022-12-24T05:55:03;8.00;99.90
44170;DHT22;29836;52.286;9.576;2022-12-24T05:57:29;8.10;99.90
44170;DHT22;29836;52.286;9.576;2022-12-24T05:59:54;8.10;99.90
44170;DHT22;29836;52.286;9.576;2022-12-24T06:02:20;8.10;99.90
44170;DHT22;29836;52.286;9.576;2022-12-24T06:04:46;8.20;99.90
44170;DHT22;29836;52.286;9.576;2022-12-24T06:07:11;8.20;99.90
44170;DHT22;29836;52.286;9.576;2022-12-24T06:09:37;8.20;99.90
44170;DHT22;29836;52.286;9.576;2022-12-24T06:12:02;8.30;99.90
44170;DHT22;29836;52.286;9.576;2022-12-24T06:14:28;8.30;99.90
44170;DHT22;29836;52.286;9.576;2022-12-24T06:16:54;8.20;99.90
44170;DHT22;29836;52.286;9.576;2022-12-24T06:19:19;8.20;99.90
44170;DHT22;29836;52.286;9.576;2022-12-24T06:21:45;8.20;99.90
44170;DHT22;29836;52.286;9.576;2022-12-24T06:24:10;8.20;99.90
44170;DHT22;29836;52.286;9.576;2022-12-24T06:26:36;8.20;99.90
44170;DHT22;29836;52.286;9.576;2022-12-24T06:29:02;8.10;99.90
44170;DHT22;29836;52.286;9.576;2022-12-24T06:31:27;8.10;99.90
44170;DHT22;29836;52.286;9.576;2022-12-24T06:33:53;7.90;99.90
44170;DHT22;29836;52.286;9.576;2022-12-24T06:36:21;7.90;99.90
44170;DHT22;29836;52.286;9.576;2022-12-24T06:38:47;7.80;99.90
44170;DHT22;29836;52.286;9.576;2022-12-24T06:41:13;7.80;99.90
44170;DHT22;29836;52.286;9.576;2022-12-24T06:43:43;7.80;99.90
44170;DHT22;29836;52.286;9.576;2022-12-24T06:46:09;7.80;99.90
44170;DHT22;29836;52.286;9.576;2022-12-24T06:48:34;7.70;99.90
44170;DHT22;29836;52.286;9.576;2022-12-24T06:51:03;7.70;99.90
44170;DHT22;29836;52.286;9.576;2022-12-24T06:53:29;7.70;99.90
44170;DHT22;29836;52.286;9.576;2022-12-24T06:56:06;7.80;99.90
44170;DHT22;29836;52.286;9.576;2022-12-24T06:58:33;7.90;99.90
44170;DHT22;29836;52.286;9.576;2022-12-24T07:01:05;8.00;99.90
44170;DHT22;29836;52.286;9.576;2022-12-24T07:03:31;8.00;99.90
44170;DHT22;29836;52.286;9.576;2022-12-24T07:05:58;8.00;99.90
44170;DHT22;29836;52.286;9.576;2022-12-24T07:08:23;8.00;99.90
44170;DHT22;29836;52.286;9.576;2022-12-24T07:10:50;7.90;99.90
44170;DHT22;29836;52.286;9.576;2022-12-24T07:13:16;7.90;99.90
44170;DHT22;29836;52.286;9.576;2022-12-24T07:15:42;7.90;99.90
44170;DHT22;29836;52.286;9.576;2022-12-24T07:18:08;7.80;99.90
44170;DHT22;29836;52.286;9.576;2022-12-24T07:20:34;7.70;99.90
44170;DHT22;29836;52.286;9.576;2022-12-24T07:22:59;7.70;99.90
44170;DHT22;29836;52.286;9.576;2022-12-24T07:25:25;7.60;99.90
44170;DHT22;29836;52.286;9.576;2022-12-24T07:27:51;7.60;99.90
44170;DHT22;29836;52.286;9.576;2022-12-24T07:30:16;7.60;99.90
44170;DHT22;29836;52.286;9.576;2022-12-24T07:32:42;7.50;99.90
44170;DHT22;29836;52.286;9.576;2022-12-24T07:35:08;7.50;99.90
44170;DHT22;29836;52.286;9.576;2022-12-24T07:37:34;7.40;99.90
44170;DHT22;29836;52.286;9.576;2022-12-24T07:39:59;7.30;99.90
44170;DHT22;29836;52.286;9.576;2022-12-24T07:42:25;7.30;99.90
44170;DHT22;29836;52.286;9.576;2022-12-24T07:44:51;7.30;99.90
44170;DHT22;29836;52.286;9.576;2022-12-24T07:47:16;7.30;99.90
44170;DHT22;29836;52.286;9.576;2022-12-24T07:49:46;7.30;99.90
44170;DHT22;29836;52.286;9.576;2022-12-24T07:52:12;7.30;99.90
44170;DHT22;29836;52.286;9.576;2022-12-24T07:54:38;7.40;99.90
44170;DHT22;29836;52.286;9.576;2022-12-24T07:57:04;7.40;99.90
44170;DHT22;29836;52.286;9.576;2022-12-24T07:59:29;7.40;99.90
44170;DHT22;29836;52.286;9.576;2022-12-24T08:01:55;7.50;99.90
44170;DHT22;29836;52.286;9.576;2022-12-24T08:04:20;7.50;99.90
44170;DHT22;29836;52.286;9.576;2022-12-24T08:06:46;7.50;99.90
44170;DHT22;29836;52.286;9.576;2022-12-24T08:09:11;7.60;99.90
44170;DHT22;29836;52.286;9.576;2022-12-24T08:11:38;7.70;99.90
44170;DHT22;29836;52.286;9.576;2022-12-24T08:14:04;7.70;99.90
44170;DHT22;29836;52.286;9.576;2022-12-24T08:16:30;7.70;99.90
44170;DHT22;29836;52.286;9.576;2022-12-24T08:18:55;7.80;99.90
44170;DHT22;29836;52.286;9.576;2022-12-24T08:21:21;7.80;99.90
44170;DHT22;29836;52.286;9.576;2022-12-24T08:23:46;7.90;99.90
44170;DHT22;29836;52.286;9.576;2022-12-24T08:26:12;7.90;99.90
44170;DHT22;29836;52.286;9.576;2022-12-24T08:28:38;7.90;99.90
44170;DHT22;29836;52.286;9.576;2022-12-24T08:31:04;7.90;99.90
44170;DHT22;29836;52.286;9.576;2022-12-24T08:33:30;8.00;99.90
44170;DHT22;29836;52.286;9.576;2022-12-24T08:35:56;8.10;99.90
44170;DHT22;29836;52.286;9.576;2022-12-24T08:38:22;8.00;99.90
44170;DHT22;29836;52.286;9.576;2022-12-24T08:40:49;8.00;99.90
44170;DHT22;29836;52.286;9.576;2022-12-24T08:43:16;8.00;99.90
44170;DHT22;29836;52.286;9.576;2022-12-24T08:45:42;8.00;99.90
44170;DHT22;29836;52.286;9.576;2022-12-24T08:48:08;8.00;99.90
44170;DHT22;29836;52.286;9.576;2022-12-24T08:50:34;8.00;99.90
44170;DHT22;29836;52.286;9.576;2022-12-24T08:53:00;8.10;99.90
44170;DHT22;29836;52.286;9.576;2022-12-24T08:55:26;8.20;99.90
44170;DHT22;29836;52.286;9.576;2022-12-24T08:57:51;8.30;99.90
44170;DHT22;29836;52.286;9.576;2022-12-24T09:00:17;8.20;99.90
44170;DHT22;29836;52.286;9.576;2022-12-24T09:02:43;8.20;99.90
44170;DHT22;29836;52.286;9.576;2022-12-24T09:05:09;8.40;99.90
44170;DHT22;29836;52.286;9.576;2022-12-24T09:07:35;9.20;99.90
44170;DHT22;29836;52.286;9.576;2022-12-24T09:10:00;10.30;99.90
44170;DHT22;29836;52.286;9.576;2022-12-24T09:12:26;11.00;99.90
44170;DHT22;29836;52.286;9.576;2022-12-24T09:14:52;11.60;99.90
44170;DHT22;29836;52.286;9.576;2022-12-24T09:17:19;11.90;99.90
44170;DHT22;29836;52.286;9.576;2022-12-24T09:19:48;12.40;99.90
44170;DHT22;29836;52.286;9.576;2022-12-24T09:22:14;12.60;99.90
44170;DHT22;29836;52.286;9.576;2022-12-24T09:24:39;12.50;99.90
44170;DHT22;29836;52.286;9.576;2022-12-24T09:27:05;11.50;99.90
44170;DHT22;29836;52.286;9.576;2022-12-24T09:29:31;10.60;99.90
44170;DHT22;29836;52.286;9.576;2022-12-24T09:31:56;10.00;99.90
44170;DHT22;29836;52.286;9.576;2022-12-24T09:34:23;9.60;99.90
44170;DHT22;29836;52.286;9.576;2022-12-24T09:36:49;9.30;99.90
44170;DHT22;29836;52.286;9.576;2022-12-24T09:39:16;9.60;99.90
44170;DHT22;29836;52.286;9.576;2022-12-24T09:42:01;10.90;99.90
44170;DHT22;29836;52.286;9.576;2022-12-24T09:47:26;12.40;99.90
44170;DHT22;29836;52.286;9.576;2022-12-24T09:49:56;12.80;99.90
44170;DHT22;29836;52.286;9.576;2022-12-24T09:52:35;13.30;99.90
44170;DHT22;29836;52.286;9.576;2022-12-24T09:57:35;14.20;99.90
44170;DHT22;29836;52.286;9.576;2022-12-24T10:00:02;14.40;99.90
44170;DHT22;29836;52.286;9.576;2022-12-24T10:02:27;14.50;99.90
44170;DHT22;29836;52.286;9.576;2022-12-24T10:04:53;14.80;99.90
44170;DHT22;29836;52.286;9.576;2022-12-24T10:07:36;14.80;99.90
44170;DHT22;29836;52.286;9.576;2022-12-24T10:13:07;14.10;99.90
44170;DHT22;29836;52.286;9.576;2022-12-24T10:15:45;13.50;99.90
44170;DHT22;29836;52.286;9.576;2022-12-24T10:21:41;14.20;99.90
44170;DHT22;29836;52.286;9.576;2022-12-24T10:24:11;13.80;99.90
44170;DHT22;29836;52.286;9.576;2022-12-24T10:26:45;12.90;99.90
44170;DHT22;29836;52.286;9.576;2022-12-24T10:29:14;12.30;99.90
44170;DHT22;29836;52.286;9.576;2022-12-24T10:34:40;11.20;99.90
44170;DHT22;29836;52.286;9.576;2022-12-24T10:37:15;10.80;99.90
44170;DHT22;29836;52.286;9.576;2022-12-24T10:39:41;10.80;99.90
44170;DHT22;29836;52.286;9.576;2022-12-24T10:42:08;11.80;99.90
44170;DHT22;29836;52.286;9.576;2022-12-24T10:44:35;12.70;99.90
44170;DHT22;29836;52.286;9.576;2022-12-24T10:47:01;12.70;99.90
44170;DHT22;29836;52.286;9.576;2022-12-24T10:49:43;12.20;99.90
44170;DHT22;29836;52.286;9.576;2022-12-24T10:52:13;11.60;99.90
44170;DHT22;29836;52.286;9.576;2022-12-24T10:57:33;11.20;99.90
44170;DHT22;29836;52.286;9.576;2022-12-24T11:00:00;10.90;99.90
44170;DHT22;29836;52.286;9.576;2022-12-24T11:02:34;10.60;99.90
44170;DHT22;29836;52.286;9.576;2022-12-24T11:05:01;10.30;99.90
44170;DHT22;29836;52.286;9.576;2022-12-24T11:07:29;10.10;99.90
44170;DHT22;29836;52.286;9.576;2022-12-24T11:10:03;10.00;99.90
44170;DHT22;29836;52.286;9.576;2022-12-24T11:12:36;9.90;99.90
44170;DHT22;29836;52.286;9.576;2022-12-24T11:15:23;9.90;99.90
44170;DHT22;29836;52.286;9.576;2022-12-24T11:17:55;9.80;99.90
44170;DHT22;29836;52.286;9.576;2022-12-24T11:20:26;9.70;99.90
44170;DHT22;29836;52.286;9.576;2022-12-24T11:22:53;9.70;99.90
44170;DHT22;29836;52.286;9.576;2022-12-24T11:25:25;9.60;99.90
44170;DHT22;29836;52.286;9.576;2022-12-24T11:27:54;9.50;99.90
44170;DHT22;29836;52.286;9.576;2022-12-24T11:30:29;9.40;99.90
44170;DHT22;29836;52.286;9.576;2022-12-24T11:35:27;9.30;99.90
44170;DHT22;29836;52.286;9.576;2022-12-24T11:40:34;9.00;99.90
44170;DHT22;29836;52.286;9.576;2022-12-24T11:43:02;8.90;99.90
44170;DHT22;29836;52.286;9.576;2022-12-24T11:45:30;8.90;99.90
44170;DHT22;29836;52.286;9.576;2022-12-24T11:47:56;8.80;99.90
44170;DHT22;29836;52.286;9.576;2022-12-24T11:53:09;8.70;99.90
44170;DHT22;29836;52.286;9.576;2022-12-24T11:55:47;8.70;99.90
44170;DHT22;29836;52.286;9.576;2022-12-24T11:58:24;8.70;99.90
44170;DHT22;29836;52.286;9.576;2022-12-24T12:01:01;8.70;99.90
44170;DHT22;29836;52.286;9.576;2022-12-24T12:03:44;8.80;99.90
44170;DHT22;29836;52.286;9.576;2022-12-24T12:06:37;8.80;99.90
44170;DHT22;29836;52.286;9.576;2022-12-24T12:09:28;9.00;99.90
44170;DHT22;29836;52.286;9.576;2022-12-24T12:12:08;9.00;99.90
44170;DHT22;29836;52.286;9.576;2022-12-24T12:15:03;8.90;99.90
44170;DHT22;29836;52.286;9.576;2022-12-24T12:17:43;8.90;99.90
44170;DHT22;29836;52.286;9.576;2022-12-24T12:20:40;9.00;99.90
44170;DHT22;29836;52.286;9.576;2022-12-24T12:23:14;9.00;99.90
44170;DHT22;29836;52.286;9.576;2022-12-24T12:26:29;9.00;99.90
44170;DHT22;29836;52.286;9.576;2022-12-24T12:31:30;9.10;99.90
44170;DHT22;29836;52.286;9.576;2022-12-24T12:36:42;9.30;99.90
44170;DHT22;29836;52.286;9.576;2022-12-24T12:39:09;9.30;99.90
44170;DHT22;29836;52.286;9.576;2022-12-24T12:41:47;9.40;99.90
44170;DHT22;29836;52.286;9.576;2022-12-24T12:44:21;9.40;99.90
44170;DHT22;29836;52.286;9.576;2022-12-24T12:49:47;9.40;99.90
44170;DHT22;29836;52.286;9.576;2022-12-24T12:57:44;9.60;99.90
44170;DHT22;29836;52.286;9.576;2022-12-24T13:00:14;9.50;99.90
44170;DHT22;29836;52.286;9.576;2022-12-24T13:02:54;9.40;99.90
44170;DHT22;29836;52.286;9.576;2022-12-24T13:08:11;9.40;99.90
44170;DHT22;29836;52.286;9.576;2022-12-24T13:10:43;9.50;99.90
44170;DHT22;29836;52.286;9.576;2022-12-24T13:13:41;9.70;99.90
44170;DHT22;29836;52.286;9.576;2022-12-24T13:19:22;9.80;99.90
44170;DHT22;29836;52.286;9.576;2022-12-24T13:21:50;9.80;99.90
44170;DHT22;29836;52.286;9.576;2022-12-24T13:24:22;9.70;99.90
44170;DHT22;29836;52.286;9.576;2022-12-24T13:27:00;9.50;99.90
44170;DHT22;29836;52.286;9.576;2022-12-24T13:34:51;9.20;99.90
44170;DHT22;29836;52.286;9.576;2022-12-24T13:37:21;9.30;99.90
44170;DHT22;29836;52.286;9.576;2022-12-24T13:40:13;9.20;99.90
44170;DHT22;29836;52.286;9.576;2022-12-24T13:43:05;9.20;99.90
44170;DHT22;29836;52.286;9.576;2022-12-24T13:50:43;9.50;99.90
44170;DHT22;29836;52.286;9.576;2022-12-24T13:55:55;9.60;99.90
44170;DHT22;29836;52.286;9.576;2022-12-24T13:58:23;9.60;99.90
44170;DHT22;29836;52.286;9.576;2022-12-24T14:00:55;9.60;99.90
44170;DHT22;29836;52.286;9.576;2022-12-24T14:06:22;9.80;99.90
44170;DHT22;29836;52.286;9.576;2022-12-24T14:08:50;9.70;99.90
44170;DHT22;29836;52.286;9.576;2022-12-24T14:11:19;9.70;99.90
44170;DHT22;29836;52.286;9.576;2022-12-24T14:16:28;9.40;99.90
44170;DHT22;29836;52.286;9.576;2022-12-24T14:22:02;9.10;99.90
44170;DHT22;29836;52.286;9.576;2022-12-24T14:24:35;8.90;99.90
44170;DHT22;29836;52.286;9.576;2022-12-24T14:30:20;8.90;99.90
44170;DHT22;29836;52.286;9.576;2022-12-24T14:32:48;8.90;99.90
44170;DHT22;29836;52.286;9.576;2022-12-24T14:37:44;8.80;99.90
44170;DHT22;29836;52.286;9.576;2022-12-24T14:40:23;8.90;99.90
44170;DHT22;29836;52.286;9.576;2022-12-24T14:43:20;8.90;99.90
44170;DHT22;29836;52.286;9.576;2022-12-24T14:46:04;8.90;99.90
44170;DHT22;29836;52.286;9.576;2022-12-24T14:54:41;8.90;99.90
44170;DHT22;29836;52.286;9.576;2022-12-24T14:59:56;8.90;99.90
44170;DHT22;29836;52.286;9.576;2022-12-24T15:02:45;8.80;99.90
44170;DHT22;29836;52.286;9.576;2022-12-24T15:05:18;8.80;99.90
44170;DHT22;29836;52.286;9.576;2022-12-24T15:07:57;8.70;99.90
44170;DHT22;29836;52.286;9.576;2022-12-24T15:10:27;8.60;99.90
44170;DHT22;29836;52.286;9.576;2022-12-24T15:12:54;8.50;99.90
44170;DHT22;29836;52.286;9.576;2022-12-24T15:15:21;8.50;99.90
44170;DHT22;29836;52.286;9.576;2022-12-24T15:17:46;8.40;99.90
44170;DHT22;29836;52.286;9.576;2022-12-24T15:20:18;8.30;99.90
44170;DHT22;29836;52.286;9.576;2022-12-24T15:22:45;8.10;99.90
44170;DHT22;29836;52.286;9.576;2022-12-24T15:25:28;8.00;99.90
44170;DHT22;29836;52.286;9.576;2022-12-24T15:27:54;7.90;99.90
44170;DHT22;29836;52.286;9.576;2022-12-24T15:30:23;7.80;99.90
44170;DHT22;29836;52.286;9.576;2022-12-24T15:32:50;7.60;99.90
44170;DHT22;29836;52.286;9.576;2022-12-24T15:35:38;7.50;99.90
44170;DHT22;29836;52.286;9.576;2022-12-24T15:38:30;7.60;99.90
44170;DHT22;29836;52.286;9.576;2022-12-24T15:40:57;7.50;99.90
44170;DHT22;29836;52.286;9.576;2022-12-24T15:43:23;7.50;99.90
44170;DHT22;29836;52.286;9.576;2022-12-24T15:45:49;7.50;99.90
44170;DHT22;29836;52.286;9.576;2022-12-24T15:48:22;7.50;99.90
44170;DHT22;29836;52.286;9.576;2022-12-24T15:50:53;7.60;99.90
44170;DHT22;29836;52.286;9.576;2022-12-24T15:53:32;7.60;99.90
44170;DHT22;29836;52.286;9.576;2022-12-24T15:56:11;7.50;99.90
44170;DHT22;29836;52.286;9.576;2022-12-24T15:58:42;7.40;99.90
44170;DHT22;29836;52.286;9.576;2022-12-24T16:03:59;7.30;99.90
44170;DHT22;29836;52.286;9.576;2022-12-24T16:06:24;7.30;99.90
44170;DHT22;29836;52.286;9.576;2022-12-24T16:08:52;7.30;99.90
44170;DHT22;29836;52.286;9.576;2022-12-24T16:11:18;7.30;99.90
44170;DHT22;29836;52.286;9.576;2022-12-24T16:16:28;7.40;99.90
44170;DHT22;29836;52.286;9.576;2022-12-24T16:18:57;7.40;99.90
44170;DHT22;29836;52.286;9.576;2022-12-24T16:21:27;7.30;99.90
44170;DHT22;29836;52.286;9.576;2022-12-24T16:26:37;7.20;99.90
44170;DHT22;29836;52.286;9.576;2022-12-24T16:29:04;7.10;99.90
44170;DHT22;29836;52.286;9.576;2022-12-24T16:31:36;7.10;99.90
44170;DHT22;29836;52.286;9.576;2022-12-24T16:34:03;7.10;99.90
44170;DHT22;29836;52.286;9.576;2022-12-24T16:36:30;7.00;99.90
44170;DHT22;29836;52.286;9.576;2022-12-24T16:38:57;7.10;99.90
44170;DHT22;29836;52.286;9.576;2022-12-24T16:41:41;7.10;99.90
44170;DHT22;29836;52.286;9.576;2022-12-24T16:44:25;7.10;99.90
44170;DHT22;29836;52.286;9.576;2022-12-24T16:46:52;7.10;99.90
44170;DHT22;29836;52.286;9.576;2022-12-24T16:49:20;7.10;99.90
44170;DHT22;29836;52.286;9.576;2022-12-24T16:51:46;7.00;99.90
44170;DHT22;29836;52.286;9.576;2022-12-24T16:54:12;7.00;99.90
44170;DHT22;29836;52.286;9.576;2022-12-24T16:56:40;6.90;99.90
44170;DHT22;29836;52.286;9.576;2022-12-24T16:59:06;6.90;99.90
44170;DHT22;29836;52.286;9.576;2022-12-24T17:01:31;6.90;99.90
44170;DHT22;29836;52.286;9.576;2022-12-24T17:03:57;6.90;99.90
44170;DHT22;29836;52.286;9.576;2022-12-24T17:06:22;6.90;99.90
44170;DHT22;29836;52.286;9.576;2022-12-24T17:08:48;7.00;99.90
44170;DHT22;29836;52.286;9.576;2022-12-24T17:11:14;7.00;99.90
44170;DHT22;29836;52.286;9.576;2022-12-24T17:13:39;7.00;99.90
44170;DHT22;29836;52.286;9.576;2022-12-24T17:16:05;7.00;99.90
44170;DHT22;29836;52.286;9.576;2022-12-24T17:18:31;6.90;99.90
44170;DHT22;29836;52.286;9.576;2022-12-24T17:21:01;6.90;99.90
44170;DHT22;29836;52.286;9.576;2022-12-24T17:23:28;6.80;99.90
44170;DHT22;29836;52.286;9.576;2022-12-24T17:25:54;6.80;99.90
44170;DHT22;29836;52.286;9.576;2022-12-24T17:28:20;6.90;99.90
44170;DHT22;29836;52.286;9.576;2022-12-24T17:30:45;6.90;99.90
44170;DHT22;29836;52.286;9.576;2022-12-24T17:33:11;6.90;99.90
44170;DHT22;29836;52.286;9.576;2022-12-24T17:35:40;7.00;99.90
44170;DHT22;29836;52.286;9.576;2022-12-24T17:38:06;7.00;99.90
44170;DHT22;29836;52.286;9.576;2022-12-24T17:40:31;7.00;99.90
44170;DHT22;29836;52.286;9.576;2022-12-24T17:42:57;7.00;99.90
44170;DHT22;29836;52.286;9.576;2022-12-24T17:45:22;7.00;99.90
44170;DHT22;29836;52.286;9.576;2022-12-24T17:47:48;7.00;99.90
44170;DHT22;29836;52.286;9.576;2022-12-24T17:50:13;6.90;99.90